createdAt,value
2022-12-20T00:02:02.319Z,5.60
2022-12-20T00:04:31.759Z,5.60
2022-12-20T00:06:59.001Z,5.60
2022-12-20T00:09:28.456Z,5.60
2022-12-20T00:11:57.446Z,5.60
2022-12-20T00:14:29.591Z,5.60
2022-12-20T00:16:58.740Z,5.70
2022-12-20T00:19:32.674Z,5.70
2022-12-20T00:22:04.118Z,5.70
2022-12-20T00:24:31.054Z,5.70
2022-12-20T00:27:02.340Z,5.70
2022-12-20T00:29:31.715Z,5.70
2022-12-20T00:32:01.065Z,5.70
2022-12-20T00:34:28.392Z,5.70
2022-12-20T00:36:57.397Z,5.70
2022-12-20T00:39:27.099Z,5.70
2022-12-20T00:41:58.761Z,5.70
2022-12-20T00:44:32.703Z,5.70
2022-12-20T00:46:59.740Z,5.70
2022-12-20T00:49:28.719Z,5.60
2022-12-20T00:52:00.251Z,5.70
2022-12-20T00:54:31.616Z,5.70
2022-12-20T00:57:00.884Z,5.70
2022-12-20T00:59:27.736Z,5.70
2022-12-20T01:01:56.028Z,5.70
2022-12-20T01:04:25.479Z,5.70
2022-12-20T01:06:52.770Z,5.70
2022-12-20T01:09:19.769Z,5.70
2022-12-20T01:11:54.449Z,5.70
2022-12-20T01:14:25.026Z,5.70
2022-12-20T01:16:53.929Z,5.70
2022-12-20T01:19:26.695Z,5.70
2022-12-20T01:21:58.081Z,5.70
2022-12-20T01:24:29.881Z,5.70
2022-12-20T01:26:59.225Z,5.70
2022-12-20T01:29:26.085Z,5.70
2022-12-20T01:31:53.964Z,5.70
2022-12-20T01:34:20.959Z,5.70
2022-12-20T01:36:49.479Z,5.80
2022-12-20T01:39:19.707Z,5.70
2022-12-20T01:41:51.202Z,5.80
2022-12-20T01:44:17.988Z,5.80
2022-12-20T01:46:49.456Z,5.80
2022-12-20T01:49:38.542Z,5.80
2022-12-20T01:52:33.287Z,5.80
2022-12-20T01:55:17.877Z,5.80
2022-12-20T01:57:52.929Z,5.80
2022-12-20T02:00:22.279Z,5.80
2022-12-20T02:02:52.541Z,5.80
2022-12-20T02:05:22.715Z,5.80
2022-12-20T02:07:57.733Z,5.80
2022-12-20T02:10:53.905Z,5.80
2022-12-20T02:13:52.571Z,5.80
2022-12-20T02:16:34.991Z,5.80
2022-12-20T02:19:25.127Z,5.80
2022-12-20T02:22:23.305Z,5.80
2022-12-20T02:25:14.656Z,5.80
2022-12-20T02:27:57.914Z,5.80
2022-12-20T02:30:37.037Z,5.70
2022-12-20T02:33:10.371Z,5.70
2022-12-20T02:35:41.922Z,5.80
2022-12-20T02:38:30.904Z,5.80
2022-12-20T02:41:31.784Z,5.80
2022-12-20T02:44:32.400Z,5.80
2022-12-20T02:47:05.582Z,5.80
2022-12-20T02:49:42.338Z,5.80
2022-12-20T02:52:13.530Z,5.80
2022-12-20T02:54:45.569Z,5.80
2022-12-20T02:57:25.414Z,5.80
2022-12-20T03:00:23.343Z,5.80
2022-12-20T03:03:12.568Z,5.80
2022-12-20T03:05:47.390Z,5.80
2022-12-20T03:08:21.428Z,5.80
2022-12-20T03:10:56.557Z,5.80
2022-12-20T03:13:25.494Z,5.80
2022-12-20T03:15:57.956Z,5.80
2022-12-20T03:18:29.770Z,5.80
2022-12-20T03:20:56.844Z,5.80
2022-12-20T03:23:26.146Z,5.80
2022-12-20T03:25:53.153Z,5.80
2022-12-20T03:28:33.249Z,5.80
2022-12-20T03:31:00.453Z,5.80
2022-12-20T03:33:32.591Z,5.80
2022-12-20T03:36:04.827Z,5.80
2022-12-20T03:38:33.144Z,5.80
2022-12-20T03:41:03.026Z,5.80
2022-12-20T03:43:32.980Z,5.80
2022-12-20T03:46:02.252Z,5.80
2022-12-20T03:48:34.766Z,5.80
2022-12-20T03:51:02.006Z,5.70
2022-12-20T03:53:33.444Z,5.80
2022-12-20T03:56:09.317Z,5.70
2022-12-20T03:58:36.737Z,5.70
2022-12-20T04:01:28.534Z,5.70
2022-12-20T04:03:57.223Z,5.70
2022-12-20T04:06:31.506Z,5.70
2022-12-20T04:09:01.015Z,5.80
2022-12-20T04:11:33.815Z,5.70
2022-12-20T04:14:12.890Z,5.70
2022-12-20T04:16:42.996Z,5.80
2022-12-20T04:19:12.605Z,5.70
2022-12-20T04:21:43.646Z,5.70
2022-12-20T04:24:13.452Z,5.70
2022-12-20T04:27:07.592Z,5.70
2022-12-20T04:29:36.916Z,5.70
2022-12-20T04:32:06.384Z,5.70
2022-12-20T04:34:36.127Z,5.70
2022-12-20T04:37:05.484Z,5.60
2022-12-20T04:39:44.676Z,5.60
2022-12-20T04:42:32.634Z,5.70
2022-12-20T04:45:00.328Z,5.60
2022-12-20T04:47:32.151Z,5.60
2022-12-20T04:50:01.691Z,5.70
2022-12-20T04:52:48.453Z,5.70
2022-12-20T04:55:25.538Z,5.70
2022-12-20T04:57:55.670Z,5.70
2022-12-20T05:00:25.426Z,5.70
2022-12-20T05:03:03.618Z,5.70
2022-12-20T05:05:30.701Z,5.70
2022-12-20T05:08:01.350Z,5.70
2022-12-20T05:10:31.724Z,5.70
2022-12-20T05:13:09.436Z,5.70
2022-12-20T05:15:42.104Z,5.70
2022-12-20T05:18:09.379Z,5.70
2022-12-20T05:21:19.605Z,5.70
2022-12-20T05:24:07.860Z,5.70
2022-12-20T05:26:48.714Z,5.70
2022-12-20T05:29:17.887Z,5.70
2022-12-20T05:31:49.689Z,5.70
2022-12-20T05:34:19.930Z,5.70
2022-12-20T05:36:54.193Z,5.70
2022-12-20T05:39:23.603Z,5.70
2022-12-20T05:41:55.736Z,5.70
2022-12-20T05:44:27.426Z,5.70
2022-12-20T05:46:57.323Z,5.70
2022-12-20T05:49:28.847Z,5.80
2022-12-20T05:51:58.529Z,5.80
2022-12-20T05:54:30.070Z,5.80
2022-12-20T05:57:05.402Z,5.80
2022-12-20T05:59:37.881Z,5.80
2022-12-20T06:02:07.799Z,5.90
2022-12-20T06:04:38.532Z,5.90
2022-12-20T06:07:16.081Z,5.90
2022-12-20T06:09:47.605Z,5.90
2022-12-20T06:12:19.819Z,5.90
2022-12-20T06:14:52.727Z,5.90
2022-12-20T06:17:22.161Z,5.90
2022-12-20T06:19:52.679Z,5.90
2022-12-20T06:22:21.747Z,5.80
2022-12-20T06:24:52.900Z,5.90
2022-12-20T06:27:24.914Z,5.90
2022-12-20T06:30:20.619Z,5.80
2022-12-20T06:33:08.502Z,5.80
2022-12-20T06:35:37.538Z,5.80
2022-12-20T06:38:05.575Z,5.80
2022-12-20T06:40:40.406Z,5.80
2022-12-20T06:43:14.600Z,5.80
2022-12-20T06:45:46.442Z,5.80
2022-12-20T06:48:13.493Z,5.80
2022-12-20T06:50:49.222Z,5.80
2022-12-20T06:53:21.544Z,5.80
2022-12-20T06:55:51.542Z,5.80
2022-12-20T06:58:21.610Z,5.80
2022-12-20T07:00:51.694Z,5.80
2022-12-20T07:03:18.757Z,5.80
2022-12-20T07:05:51.670Z,5.80
2022-12-20T07:08:19.107Z,5.80
2022-12-20T07:10:45.918Z,5.80
2022-12-20T07:13:15.996Z,5.80
2022-12-20T07:15:42.900Z,5.80
2022-12-20T07:18:13.441Z,5.80
2022-12-20T07:20:43.162Z,5.80
2022-12-20T07:23:12.603Z,5.80
2022-12-20T07:25:43.802Z,5.80
2022-12-20T07:28:12.964Z,5.90
2022-12-20T07:30:39.827Z,5.90
2022-12-20T07:33:09.332Z,5.90
2022-12-20T07:35:38.403Z,5.90
2022-12-20T07:38:07.642Z,5.90
2022-12-20T07:40:37.042Z,5.90
2022-12-20T07:43:08.524Z,6.00
2022-12-20T07:45:37.489Z,6.00
2022-12-20T07:48:12.575Z,6.00
2022-12-20T07:50:42.330Z,6.00
2022-12-20T07:53:10.793Z,6.00
2022-12-20T07:55:40.395Z,6.10
2022-12-20T07:58:14.820Z,6.00
2022-12-20T08:00:44.140Z,6.10
2022-12-20T08:03:32.878Z,6.10
2022-12-20T08:06:04.214Z,6.10
2022-12-20T08:08:41.925Z,6.10
2022-12-20T08:11:11.885Z,6.10
2022-12-20T08:13:46.608Z,6.10
2022-12-20T08:16:17.333Z,6.10
2022-12-20T08:18:46.741Z,6.20
2022-12-20T08:21:16.274Z,6.20
2022-12-20T08:23:47.731Z,6.20
2022-12-20T08:26:17.595Z,6.20
2022-12-20T08:28:44.818Z,6.20
2022-12-20T08:31:13.974Z,6.20
2022-12-20T08:33:43.572Z,6.30
2022-12-20T08:36:12.937Z,6.30
2022-12-20T08:38:42.677Z,6.30
2022-12-20T08:41:19.067Z,6.30
2022-12-20T08:43:48.396Z,6.40
2022-12-20T08:46:15.385Z,6.40
2022-12-20T08:48:49.457Z,6.50
2022-12-20T08:51:16.430Z,6.50
2022-12-20T08:53:45.760Z,6.50
2022-12-20T08:56:16.807Z,6.50
2022-12-20T08:58:47.105Z,6.50
2022-12-20T09:01:23.992Z,6.60
2022-12-20T09:03:51.025Z,6.60
2022-12-20T09:06:21.240Z,6.60
2022-12-20T09:08:51.096Z,6.60
2022-12-20T09:11:24.720Z,6.60
2022-12-20T09:13:56.893Z,6.60
2022-12-20T09:16:31.956Z,6.70
2022-12-20T09:19:05.997Z,6.70
2022-12-20T09:21:34.910Z,6.70
2022-12-20T09:24:04.342Z,6.80
2022-12-20T09:26:35.073Z,6.80
2022-12-20T09:29:02.571Z,6.80
2022-12-20T09:31:29.652Z,6.90
2022-12-20T09:33:59.623Z,7.00
2022-12-20T09:36:30.228Z,7.00
2022-12-20T09:38:58.066Z,7.10
2022-12-20T09:41:44.537Z,7.10
2022-12-20T09:44:32.092Z,7.20
2022-12-20T09:47:11.380Z,7.20
2022-12-20T09:49:45.542Z,7.30
2022-12-20T09:52:54.500Z,7.40
2022-12-20T09:55:46.976Z,7.40
2022-12-20T09:58:43.210Z,7.50
2022-12-20T10:01:27.851Z,7.50
2022-12-20T10:04:06.710Z,7.50
2022-12-20T10:07:13.072Z,7.60
2022-12-20T10:09:59.032Z,7.60
2022-12-20T10:13:15.513Z,7.70
2022-12-20T10:16:09.770Z,7.70
2022-12-20T10:18:54.970Z,7.70
2022-12-20T10:21:34.260Z,7.80
2022-12-20T10:24:15.299Z,7.80
2022-12-20T10:26:46.407Z,7.80
2022-12-20T10:29:19.292Z,7.90
2022-12-20T10:31:52.371Z,7.90
2022-12-20T10:34:25.025Z,7.90
2022-12-20T10:37:16.982Z,8.00
2022-12-20T10:39:49.521Z,8.00
2022-12-20T10:42:41.201Z,8.10
2022-12-20T10:45:39.808Z,8.10
2022-12-20T10:48:28.159Z,8.10
2022-12-20T10:51:02.941Z,8.10
2022-12-20T10:53:33.334Z,8.10
2022-12-20T10:56:38.662Z,8.10
2022-12-20T10:59:19.522Z,8.20
2022-12-20T11:01:48.750Z,8.20
2022-12-20T11:04:34.884Z,8.30
2022-12-20T11:07:24.335Z,8.30
2022-12-20T11:10:21.804Z,8.30
2022-12-20T11:13:04.286Z,8.30
2022-12-20T11:15:49.010Z,8.40
2022-12-20T11:18:51.533Z,8.40
2022-12-20T11:21:41.974Z,8.40
2022-12-20T11:24:34.882Z,8.50
2022-12-20T11:28:19.626Z,8.50
2022-12-20T11:31:27.546Z,8.60
2022-12-20T11:34:09.759Z,8.60
2022-12-20T11:37:01.805Z,8.60
2022-12-20T11:39:44.342Z,8.60
2022-12-20T11:42:37.809Z,8.70
2022-12-20T11:45:34.695Z,8.70
2022-12-20T11:48:26.501Z,8.80
2022-12-20T11:51:06.099Z,8.80
2022-12-20T11:53:47.697Z,8.80
2022-12-20T11:56:24.607Z,8.90
2022-12-20T11:59:02.061Z,8.90
2022-12-20T12:01:57.840Z,8.90
2022-12-20T12:04:38.265Z,8.90
2022-12-20T12:07:25.619Z,9.00
2022-12-20T12:09:58.478Z,9.00
2022-12-20T12:12:52.562Z,9.00
2022-12-20T12:15:55.901Z,9.00
2022-12-20T12:18:32.626Z,9.00
2022-12-20T12:21:12.140Z,9.00
2022-12-20T12:24:00.151Z,9.00
2022-12-20T12:26:41.973Z,9.00
2022-12-20T12:29:08.918Z,9.00
2022-12-20T12:31:49.935Z,9.00
2022-12-20T12:35:09.972Z,9.00
2022-12-20T12:38:14.272Z,9.00
2022-12-20T12:41:26.520Z,9.00
2022-12-20T12:44:27.630Z,9.00
2022-12-20T12:47:16.010Z,9.10
2022-12-20T12:49:50.343Z,9.10
2022-12-20T12:52:46.422Z,9.10
2022-12-20T12:56:07.437Z,9.10
2022-12-20T12:58:46.439Z,9.20
2022-12-20T13:01:47.645Z,9.20
2022-12-20T13:04:20.728Z,9.20
2022-12-20T13:06:47.451Z,9.30
2022-12-20T13:09:29.952Z,9.30
2022-12-20T13:12:06.766Z,9.30
2022-12-20T13:14:36.703Z,9.30
2022-12-20T13:17:13.014Z,9.30
2022-12-20T13:19:58.009Z,9.40
2022-12-20T13:22:31.534Z,9.40
2022-12-20T13:25:31.156Z,9.40
2022-12-20T13:28:21.794Z,9.50
2022-12-20T13:31:00.962Z,9.50
2022-12-20T13:33:45.111Z,9.50
2022-12-20T13:36:11.919Z,9.50
2022-12-20T13:38:58.431Z,9.60
2022-12-20T13:41:37.345Z,9.60
2022-12-20T13:44:18.373Z,9.60
2022-12-20T13:47:06.995Z,9.60
2022-12-20T13:49:40.603Z,9.60
2022-12-20T13:52:21.578Z,9.60
2022-12-20T13:54:52.913Z,9.70
2022-12-20T13:57:46.084Z,9.70
2022-12-20T14:00:27.440Z,9.70
2022-12-20T14:02:58.012Z,9.80
2022-12-20T14:05:36.813Z,9.80
2022-12-20T14:08:11.812Z,9.80
2022-12-20T14:10:38.689Z,9.80
2022-12-20T14:13:27.493Z,9.80
2022-12-20T14:15:56.139Z,9.90
2022-12-20T14:18:27.983Z,9.90
2022-12-20T14:21:06.423Z,9.90
2022-12-20T14:23:39.075Z,9.90
2022-12-20T14:26:13.163Z,9.90
2022-12-20T14:28:48.903Z,9.80
2022-12-20T14:31:38.177Z,9.80
2022-12-20T14:34:18.522Z,9.80
2022-12-20T14:36:51.537Z,9.80
2022-12-20T14:39:37.345Z,9.80
2022-12-20T14:42:07.191Z,9.80
2022-12-20T14:44:39.690Z,9.70
2022-12-20T14:47:25.796Z,9.70
2022-12-20T14:49:59.156Z,9.70
2022-12-20T14:52:41.900Z,9.60
2022-12-20T14:55:39.871Z,9.60
2022-12-20T14:58:27.066Z,9.60
2022-12-20T15:01:23.442Z,9.60
2022-12-20T15:03:59.268Z,9.50
2022-12-20T15:06:45.892Z,9.50
2022-12-20T15:09:12.853Z,9.50
2022-12-20T15:11:47.001Z,9.50
2022-12-20T15:14:40.658Z,9.40
2022-12-20T15:17:14.693Z,9.40
2022-12-20T15:19:42.884Z,9.40
2022-12-20T15:22:18.250Z,9.30
2022-12-20T15:24:49.800Z,9.30
2022-12-20T15:27:21.261Z,9.30
2022-12-20T15:29:52.739Z,9.20
2022-12-20T15:32:31.021Z,9.20
2022-12-20T15:34:57.959Z,9.20
2022-12-20T15:37:26.898Z,9.20
2022-12-20T15:39:59.023Z,9.10
2022-12-20T15:42:28.209Z,9.10
2022-12-20T15:45:00.570Z,9.10
2022-12-20T15:47:29.696Z,9.10
2022-12-20T15:50:01.305Z,9.10
2022-12-20T15:52:36.201Z,9.00
2022-12-20T15:55:09.570Z,9.00
2022-12-20T15:57:41.201Z,9.00
2022-12-20T16:00:13.605Z,9.00
2022-12-20T16:02:47.918Z,8.90
2022-12-20T16:05:15.009Z,8.90
2022-12-20T16:07:46.821Z,8.90
2022-12-20T16:10:15.279Z,8.90
2022-12-20T16:12:48.449Z,8.80
2022-12-20T16:15:26.073Z,8.80
2022-12-20T16:17:57.553Z,8.80
2022-12-20T16:20:27.520Z,8.80
2022-12-20T16:22:56.625Z,8.70
2022-12-20T16:25:34.209Z,8.70
2022-12-20T16:28:06.307Z,8.70
2022-12-20T16:30:38.026Z,8.70
2022-12-20T16:33:11.523Z,8.70
2022-12-20T16:35:40.990Z,8.60
2022-12-20T16:38:10.361Z,8.60
2022-12-20T16:40:37.472Z,8.60
2022-12-20T16:43:07.736Z,8.60
2022-12-20T16:45:34.848Z,8.60
2022-12-20T16:48:03.703Z,8.60
2022-12-20T16:50:30.701Z,8.60
2022-12-20T16:52:57.597Z,8.60
2022-12-20T16:55:27.595Z,8.60
2022-12-20T16:57:56.974Z,8.60
2022-12-20T17:00:29.557Z,8.50
2022-12-20T17:03:01.537Z,8.50
2022-12-20T17:05:37.438Z,8.50
2022-12-20T17:10:55.523Z,8.50
2022-12-20T17:13:24.533Z,8.50
2022-12-20T17:15:56.601Z,8.40
2022-12-20T17:18:23.692Z,8.40
2022-12-20T17:20:52.737Z,8.40
2022-12-20T17:23:22.075Z,8.40
2022-12-20T17:25:54.064Z,8.40
2022-12-20T17:28:26.230Z,8.40
2022-12-20T17:31:02.395Z,8.40
2022-12-20T17:33:39.644Z,8.40
2022-12-20T17:36:07.068Z,8.40
2022-12-20T17:38:35.958Z,8.40
2022-12-20T17:41:03.587Z,8.40
2022-12-20T17:43:30.817Z,8.40
2022-12-20T17:45:59.825Z,8.40
2022-12-20T17:48:32.626Z,8.50
2022-12-20T17:51:01.742Z,8.50
2022-12-20T17:53:28.572Z,8.50
2022-12-20T17:55:55.540Z,8.50
2022-12-20T17:58:27.102Z,8.50
2022-12-20T18:00:54.023Z,8.50
2022-12-20T18:04:01.744Z,8.50
2022-12-20T18:06:09.515Z,8.50
2022-12-20T18:08:36.794Z,8.50
2022-12-20T18:11:06.675Z,8.50
2022-12-20T18:13:33.561Z,8.50
2022-12-20T18:16:07.772Z,8.50
2022-12-20T18:18:38.172Z,8.50
2022-12-20T18:21:12.025Z,8.50
2022-12-20T18:23:43.102Z,8.50
2022-12-20T18:26:20.015Z,8.50
2022-12-20T18:28:50.975Z,8.50
2022-12-20T18:31:27.258Z,8.50
2022-12-20T18:33:58.828Z,8.50
2022-12-20T18:36:35.355Z,8.60
2022-12-20T18:39:05.714Z,8.50
2022-12-20T18:41:37.844Z,8.50
2022-12-20T18:44:09.093Z,8.60
2022-12-20T18:46:36.122Z,8.50
2022-12-20T18:49:05.514Z,8.50
2022-12-20T18:51:38.696Z,8.50
2022-12-20T18:54:12.603Z,8.60
2022-12-20T18:56:40.665Z,8.60
2022-12-20T18:59:13.244Z,8.50
2022-12-20T19:01:44.014Z,8.60
2022-12-20T19:04:15.920Z,8.60
2022-12-20T19:06:52.393Z,8.60
2022-12-20T19:09:19.396Z,8.60
2022-12-20T19:11:54.638Z,8.50
2022-12-20T19:14:28.132Z,8.50
2022-12-20T19:16:56.679Z,8.50
2022-12-20T19:19:28.456Z,8.50
2022-12-20T19:21:55.311Z,8.50
2022-12-20T19:24:24.501Z,8.50
2022-12-20T19:26:52.702Z,8.50
2022-12-20T19:29:19.771Z,8.50
2022-12-20T19:31:51.623Z,8.50
2022-12-20T19:34:23.953Z,8.50
2022-12-20T19:36:51.847Z,8.50
2022-12-20T19:39:23.292Z,8.50
2022-12-20T19:44:42.095Z,8.50
2022-12-20T19:47:14.402Z,8.50
2022-12-20T19:49:41.362Z,8.40
2022-12-20T19:52:12.014Z,8.40
2022-12-20T19:54:39.848Z,8.40
2022-12-20T19:57:06.879Z,8.40
2022-12-20T19:59:33.929Z,8.40
2022-12-20T20:02:01.215Z,8.40
2022-12-20T20:04:30.776Z,8.40
2022-12-20T20:07:07.575Z,8.40
2022-12-20T20:09:35.021Z,8.40
2022-12-20T20:12:04.525Z,8.40
2022-12-20T20:14:31.513Z,8.40
2022-12-20T20:16:58.611Z,8.40
2022-12-20T20:19:32.520Z,8.40
2022-12-20T20:22:01.900Z,8.40
2022-12-20T20:24:30.994Z,8.40
2022-12-20T20:27:02.314Z,8.40
2022-12-20T20:29:29.580Z,8.40
2022-12-20T20:31:56.584Z,8.40
2022-12-20T20:34:25.924Z,8.40
2022-12-20T20:36:52.796Z,8.50
2022-12-20T20:39:22.182Z,8.40
2022-12-20T20:41:49.183Z,8.40
2022-12-20T20:44:26.070Z,8.50
2022-12-20T20:46:52.964Z,8.50
2022-12-20T20:49:21.936Z,8.50
2022-12-20T20:51:48.874Z,8.50
2022-12-20T20:54:18.323Z,8.50
2022-12-20T20:56:45.141Z,8.50
2022-12-20T20:59:17.912Z,8.50
2022-12-20T21:01:48.017Z,8.50
2022-12-20T21:04:14.999Z,8.50
2022-12-20T21:06:48.786Z,8.50
2022-12-20T21:09:18.183Z,8.50
2022-12-20T21:11:47.801Z,8.50
2022-12-20T21:14:16.340Z,8.50
2022-12-20T21:16:47.904Z,8.50
2022-12-20T21:19:14.934Z,8.50
2022-12-20T21:21:44.336Z,8.50
2022-12-20T21:24:13.389Z,8.50
2022-12-20T21:26:40.246Z,8.50
2022-12-20T21:29:09.604Z,8.50
2022-12-20T21:31:36.763Z,8.50
2022-12-20T21:34:06.376Z,8.50
2022-12-20T21:36:34.653Z,8.50
2022-12-20T21:39:04.445Z,8.50
2022-12-20T21:41:33.956Z,8.50
2022-12-20T21:44:01.400Z,8.50
2022-12-20T21:46:33.880Z,8.50
2022-12-20T21:49:05.742Z,8.50
2022-12-20T21:51:36.363Z,8.50
2022-12-20T21:54:07.437Z,8.50
2022-12-20T21:56:39.363Z,8.50
2022-12-20T21:59:12.838Z,8.50
2022-12-20T22:01:40.615Z,8.50
2022-12-20T22:04:08.217Z,8.50
2022-12-20T22:06:38.415Z,8.50
2022-12-20T22:09:12.671Z,8.50
2022-12-20T22:11:42.672Z,8.50
2022-12-20T22:14:15.254Z,8.50
2022-12-20T22:16:45.925Z,8.60
2022-12-20T22:19:15.610Z,8.60
2022-12-20T22:21:43.060Z,8.60
2022-12-20T22:24:12.861Z,8.60
2022-12-20T22:26:45.551Z,8.60
2022-12-20T22:29:12.482Z,8.60
2022-12-20T22:31:42.712Z,8.60
2022-12-20T22:34:11.839Z,8.60
2022-12-20T22:36:40.797Z,8.60
2022-12-20T22:39:08.651Z,8.60
2022-12-20T22:41:35.743Z,8.60
2022-12-20T22:44:05.108Z,8.60
2022-12-20T22:46:39.282Z,8.60
2022-12-20T22:49:18.503Z,8.60
2022-12-20T22:52:04.318Z,8.60
2022-12-20T22:54:39.068Z,8.60
2022-12-20T22:57:05.928Z,8.60
2022-12-20T22:59:34.542Z,8.60
2022-12-20T23:02:04.309Z,8.60
2022-12-20T23:04:33.768Z,8.60
2022-12-20T23:07:00.658Z,8.60
2022-12-20T23:09:30.889Z,8.60
2022-12-20T23:12:16.632Z,8.60
2022-12-20T23:15:04.637Z,8.60
2022-12-20T23:17:33.125Z,8.60
2022-12-20T23:20:21.108Z,8.60
2022-12-20T23:22:50.977Z,8.60
2022-12-20T23:25:19.900Z,8.60
2022-12-20T23:27:51.490Z,8.60
2022-12-20T23:30:23.187Z,8.50
2022-12-20T23:32:50.230Z,8.50
2022-12-20T23:35:25.721Z,8.50
2022-12-20T23:37:54.661Z,8.50
2022-12-20T23:40:23.780Z,8.50
2022-12-20T23:42:54.449Z,8.50
2022-12-20T23:45:23.900Z,8.50
2022-12-20T23:47:50.753Z,8.50
2022-12-20T23:50:17.726Z,8.50
2022-12-20T23:52:46.644Z,8.40
2022-12-20T23:55:13.486Z,8.40
2022-12-20T23:57:42.651Z,8.40
